sensor_id;sensor_type;location;lat;lon;timestamp;P1;durP1;ratioP1;P2;durP2;ratioP2
75787;SDS011;64406;50.024;14.492;2023-06-10T00:00:36;24.58;;;14.98;;
75787;SDS011;64406;50.024;14.492;2023-06-10T00:03:22;25.10;;;13.90;;
75787;SDS011;64406;50.024;14.492;2023-06-10T00:05:49;23.13;;;13.77;;
75787;SDS011;64406;50.024;14.492;2023-06-10T00:08:14;23.90;;;14.63;;
75787;SDS011;64406;50.024;14.492;2023-06-10T00:10:40;21.58;;;13.88;;
75787;SDS011;64406;50.024;14.492;2023-06-10T00:13:06;22.67;;;14.38;;
75787;SDS011;64406;50.024;14.492;2023-06-10T00:15:36;24.02;;;13.95;;
75787;SDS011;64406;50.024;14.492;2023-06-10T00:18:02;24.55;;;15.63;;
75787;SDS011;64406;50.024;14.492;2023-06-10T00:20:29;23.70;;;14.45;;
75787;SDS011;64406;50.024;14.492;2023-06-10T00:22:56;31.45;;;15.50;;
75787;SDS011;64406;50.024;14.492;2023-06-10T00:25:24;26.05;;;16.17;;
75787;SDS011;64406;50.024;14.492;2023-06-10T00:27:51;26.90;;;15.00;;
75787;SDS011;64406;50.024;14.492;2023-06-10T00:30:17;27.73;;;16.13;;
75787;SDS011;64406;50.024;14.492;2023-06-10T00:32:43;24.90;;;15.85;;
75787;SDS011;64406;50.024;14.492;2023-06-10T00:35:08;25.13;;;16.52;;
75787;SDS011;64406;50.024;14.492;2023-06-10T00:37:34;32.13;;;18.05;;
75787;SDS011;64406;50.024;14.492;2023-06-10T00:40:02;26.80;;;17.08;;
75787;SDS011;64406;50.024;14.492;2023-06-10T00:42:28;29.67;;;17.48;;
75787;SDS011;64406;50.024;14.492;2023-06-10T00:44:54;33.67;;;19.00;;
75787;SDS011;64406;50.024;14.492;2023-06-10T00:47:21;32.22;;;18.48;;
75787;SDS011;64406;50.024;14.492;2023-06-10T00:49:47;25.25;;;16.52;;
75787;SDS011;64406;50.024;14.492;2023-06-10T00:52:14;27.25;;;16.80;;
75787;SDS011;64406;50.024;14.492;2023-06-10T00:54:41;28.65;;;16.58;;
75787;SDS011;64406;50.024;14.492;2023-06-10T00:57:07;30.48;;;16.42;;
75787;SDS011;64406;50.024;14.492;2023-06-10T00:59:33;27.30;;;16.27;;
75787;SDS011;64406;50.024;14.492;2023-06-10T01:01:59;26.95;;;16.17;;
75787;SDS011;64406;50.024;14.492;2023-06-10T01:04:27;23.30;;;15.15;;
75787;SDS011;64406;50.024;14.492;2023-06-10T01:07:03;27.02;;;15.23;;
75787;SDS011;64406;50.024;14.492;2023-06-10T01:15:07;26.35;;;14.57;;
75787;SDS011;64406;50.024;14.492;2023-06-10T01:17:37;24.00;;;14.43;;
75787;SDS011;64406;50.024;14.492;2023-06-10T01:20:18;20.00;;;12.68;;
75787;SDS011;64406;50.024;14.492;2023-06-10T01:22:44;20.77;;;13.60;;
75787;SDS011;64406;50.024;14.492;2023-06-10T01:25:10;22.63;;;13.48;;
75787;SDS011;64406;50.024;14.492;2023-06-10T01:27:37;24.50;;;14.10;;
75787;SDS011;64406;50.024;14.492;2023-06-10T01:30:11;22.60;;;13.85;;
75787;SDS011;64406;50.024;14.492;2023-06-10T01:32:43;25.08;;;15.88;;
75787;SDS011;64406;50.024;14.492;2023-06-10T01:35:10;29.67;;;16.65;;
75787;SDS011;64406;50.024;14.492;2023-06-10T01:37:38;29.33;;;17.15;;
75787;SDS011;64406;50.024;14.492;2023-06-10T01:40:06;29.30;;;17.77;;
75787;SDS011;64406;50.024;14.492;2023-06-10T01:42:33;36.08;;;17.35;;
75787;SDS011;64406;50.024;14.492;2023-06-10T01:44:59;30.95;;;16.88;;
75787;SDS011;64406;50.024;14.492;2023-06-10T01:47:25;27.30;;;16.38;;
75787;SDS011;64406;50.024;14.492;2023-06-10T01:49:50;32.10;;;17.60;;
75787;SDS011;64406;50.024;14.492;2023-06-10T01:52:16;32.22;;;18.15;;
75787;SDS011;64406;50.024;14.492;2023-06-10T01:54:42;33.25;;;18.10;;
75787;SDS011;64406;50.024;14.492;2023-06-10T01:57:08;41.40;;;19.50;;
75787;SDS011;64406;50.024;14.492;2023-06-10T01:59:33;40.85;;;19.95;;
75787;SDS011;64406;50.024;14.492;2023-06-10T02:01:59;40.20;;;18.88;;
75787;SDS011;64406;50.024;14.492;2023-06-10T02:04:24;38.28;;;18.98;;
75787;SDS011;64406;50.024;14.492;2023-06-10T02:06:50;37.95;;;18.90;;
75787;SDS011;64406;50.024;14.492;2023-06-10T02:09:16;38.00;;;19.17;;
75787;SDS011;64406;50.024;14.492;2023-06-10T02:11:44;31.48;;;16.52;;
75787;SDS011;64406;50.024;14.492;2023-06-10T02:14:09;30.42;;;17.88;;
75787;SDS011;64406;50.024;14.492;2023-06-10T02:16:35;27.33;;;16.08;;
75787;SDS011;64406;50.024;14.492;2023-06-10T02:19:01;27.17;;;15.52;;
75787;SDS011;64406;50.024;14.492;2023-06-10T02:21:28;31.50;;;16.38;;
75787;SDS011;64406;50.024;14.492;2023-06-10T02:23:53;33.20;;;16.85;;
75787;SDS011;64406;50.024;14.492;2023-06-10T02:26:19;26.50;;;15.82;;
75787;SDS011;64406;50.024;14.492;2023-06-10T02:28:46;28.30;;;16.95;;
75787;SDS011;64406;50.024;14.492;2023-06-10T02:31:12;25.75;;;15.95;;
75787;SDS011;64406;50.024;14.492;2023-06-10T02:33:38;25.10;;;15.23;;
75787;SDS011;64406;50.024;14.492;2023-06-10T02:36:05;24.58;;;15.07;;
75787;SDS011;64406;50.024;14.492;2023-06-10T02:38:31;24.17;;;14.70;;
75787;SDS011;64406;50.024;14.492;2023-06-10T02:40:57;25.25;;;14.05;;
75787;SDS011;64406;50.024;14.492;2023-06-10T02:43:22;26.23;;;14.35;;
75787;SDS011;64406;50.024;14.492;2023-06-10T02:45:48;28.60;;;15.77;;
75787;SDS011;64406;50.024;14.492;2023-06-10T02:48:14;24.70;;;14.95;;
75787;SDS011;64406;50.024;14.492;2023-06-10T02:50:39;26.02;;;15.38;;
75787;SDS011;64406;50.024;14.492;2023-06-10T02:53:05;25.67;;;14.35;;
75787;SDS011;64406;50.024;14.492;2023-06-10T02:55:31;24.63;;;15.27;;
75787;SDS011;64406;50.024;14.492;2023-06-10T02:57:57;28.75;;;16.92;;
75787;SDS011;64406;50.024;14.492;2023-06-10T03:00:24;26.65;;;14.88;;
75787;SDS011;64406;50.024;14.492;2023-06-10T03:02:50;24.20;;;15.10;;
75787;SDS011;64406;50.024;14.492;2023-06-10T03:05:16;29.13;;;15.18;;
75787;SDS011;64406;50.024;14.492;2023-06-10T03:07:42;24.13;;;13.75;;
75787;SDS011;64406;50.024;14.492;2023-06-10T03:10:08;21.05;;;13.55;;
75787;SDS011;64406;50.024;14.492;2023-06-10T03:12:33;22.73;;;13.35;;
75787;SDS011;64406;50.024;14.492;2023-06-10T03:14:59;23.55;;;12.93;;
75787;SDS011;64406;50.024;14.492;2023-06-10T03:17:25;20.75;;;13.00;;
75787;SDS011;64406;50.024;14.492;2023-06-10T03:19:50;23.80;;;14.50;;
75787;SDS011;64406;50.024;14.492;2023-06-10T03:22:16;24.88;;;14.48;;
75787;SDS011;64406;50.024;14.492;2023-06-10T03:24:42;24.30;;;13.35;;
75787;SDS011;64406;50.024;14.492;2023-06-10T03:27:09;20.70;;;12.77;;
75787;SDS011;64406;50.024;14.492;2023-06-10T03:29:36;20.60;;;13.10;;
75787;SDS011;64406;50.024;14.492;2023-06-10T03:32:02;18.52;;;12.02;;
75787;SDS011;64406;50.024;14.492;2023-06-10T03:34:28;22.98;;;11.95;;
75787;SDS011;64406;50.024;14.492;2023-06-10T03:36:55;21.52;;;13.35;;
75787;SDS011;64406;50.024;14.492;2023-06-10T03:39:21;21.48;;;12.57;;
75787;SDS011;64406;50.024;14.492;2023-06-10T03:41:49;21.65;;;12.90;;
75787;SDS011;64406;50.024;14.492;2023-06-10T03:44:15;24.08;;;14.07;;
75787;SDS011;64406;50.024;14.492;2023-06-10T03:46:40;21.50;;;14.07;;
75787;SDS011;64406;50.024;14.492;2023-06-10T03:49:06;23.77;;;14.20;;
75787;SDS011;64406;50.024;14.492;2023-06-10T03:51:32;24.08;;;13.95;;
75787;SDS011;64406;50.024;14.492;2023-06-10T03:53:58;24.70;;;15.40;;
75787;SDS011;64406;50.024;14.492;2023-06-10T03:56:24;23.55;;;14.85;;
75787;SDS011;64406;50.024;14.492;2023-06-10T03:58:50;28.08;;;15.18;;
75787;SDS011;64406;50.024;14.492;2023-06-10T04:01:16;25.55;;;15.10;;
75787;SDS011;64406;50.024;14.492;2023-06-10T04:03:43;22.48;;;14.20;;
75787;SDS011;64406;50.024;14.492;2023-06-10T04:06:09;25.88;;;15.10;;
75787;SDS011;64406;50.024;14.492;2023-06-10T04:08:35;26.98;;;15.35;;
75787;SDS011;64406;50.024;14.492;2023-06-10T04:11:01;22.25;;;13.95;;
75787;SDS011;64406;50.024;14.492;2023-06-10T04:13:27;23.38;;;14.18;;
75787;SDS011;64406;50.024;14.492;2023-06-10T04:15:53;24.75;;;14.40;;
75787;SDS011;64406;50.024;14.492;2023-06-10T04:18:19;31.38;;;16.48;;
75787;SDS011;64406;50.024;14.492;2023-06-10T04:20:47;25.50;;;15.30;;
75787;SDS011;64406;50.024;14.492;2023-06-10T04:23:12;22.25;;;13.77;;
75787;SDS011;64406;50.024;14.492;2023-06-10T04:25:38;25.17;;;14.63;;
75787;SDS011;64406;50.024;14.492;2023-06-10T04:28:04;18.95;;;12.60;;
75787;SDS011;64406;50.024;14.492;2023-06-10T04:30:30;25.60;;;15.05;;
75787;SDS011;64406;50.024;14.492;2023-06-10T04:32:56;28.73;;;16.33;;
75787;SDS011;64406;50.024;14.492;2023-06-10T04:35:22;24.05;;;15.25;;
75787;SDS011;64406;50.024;14.492;2023-06-10T04:37:48;25.27;;;14.20;;
75787;SDS011;64406;50.024;14.492;2023-06-10T04:40:14;28.25;;;15.13;;
75787;SDS011;64406;50.024;14.492;2023-06-10T04:42:41;25.60;;;14.50;;
75787;SDS011;64406;50.024;14.492;2023-06-10T04:45:07;27.30;;;14.68;;
75787;SDS011;64406;50.024;14.492;2023-06-10T04:47:33;20.70;;;13.77;;
75787;SDS011;64406;50.024;14.492;2023-06-10T04:49:59;24.00;;;15.10;;
75787;SDS011;64406;50.024;14.492;2023-06-10T04:52:25;21.45;;;14.30;;
75787;SDS011;64406;50.024;14.492;2023-06-10T04:54:52;26.40;;;16.40;;
75787;SDS011;64406;50.024;14.492;2023-06-10T04:57:17;29.75;;;15.93;;
75787;SDS011;64406;50.024;14.492;2023-06-10T04:59:43;26.42;;;16.85;;
75787;SDS011;64406;50.024;14.492;2023-06-10T05:02:09;34.20;;;20.35;;
75787;SDS011;64406;50.024;14.492;2023-06-10T05:04:36;31.60;;;20.10;;
75787;SDS011;64406;50.024;14.492;2023-06-10T05:07:01;28.48;;;18.75;;
75787;SDS011;64406;50.024;14.492;2023-06-10T05:09:27;24.58;;;17.63;;
75787;SDS011;64406;50.024;14.492;2023-06-10T05:11:53;25.92;;;18.13;;
75787;SDS011;64406;50.024;14.492;2023-06-10T05:14:19;26.08;;;16.02;;
75787;SDS011;64406;50.024;14.492;2023-06-10T05:16:46;24.10;;;15.85;;
75787;SDS011;64406;50.024;14.492;2023-06-10T05:19:12;19.95;;;13.98;;
75787;SDS011;64406;50.024;14.492;2023-06-10T05:21:38;18.05;;;12.98;;
75787;SDS011;64406;50.024;14.492;2023-06-10T05:24:04;23.25;;;13.38;;
75787;SDS011;64406;50.024;14.492;2023-06-10T05:26:29;17.63;;;12.20;;
75787;SDS011;64406;50.024;14.492;2023-06-10T05:28:57;16.73;;;11.98;;
75787;SDS011;64406;50.024;14.492;2023-06-10T05:31:23;19.40;;;13.05;;
75787;SDS011;64406;50.024;14.492;2023-06-10T05:33:49;19.30;;;12.40;;
75787;SDS011;64406;50.024;14.492;2023-06-10T05:36:15;15.25;;;11.13;;
75787;SDS011;64406;50.024;14.492;2023-06-10T05:38:41;18.65;;;10.05;;
75787;SDS011;64406;50.024;14.492;2023-06-10T05:41:06;11.88;;;9.63;;
75787;SDS011;64406;50.024;14.492;2023-06-10T05:43:32;11.82;;;9.55;;
75787;SDS011;64406;50.024;14.492;2023-06-10T05:45:58;10.05;;;8.63;;
75787;SDS011;64406;50.024;14.492;2023-06-10T05:48:23;15.30;;;8.27;;
75787;SDS011;64406;50.024;14.492;2023-06-10T05:50:49;13.98;;;8.45;;
75787;SDS011;64406;50.024;14.492;2023-06-10T05:53:15;11.85;;;8.15;;
75787;SDS011;64406;50.024;14.492;2023-06-10T05:55:44;10.32;;;8.70;;
75787;SDS011;64406;50.024;14.492;2023-06-10T05:58:10;9.48;;;8.02;;
75787;SDS011;64406;50.024;14.492;2023-06-10T06:00:38;10.68;;;7.85;;
75787;SDS011;64406;50.024;14.492;2023-06-10T06:03:06;8.77;;;7.70;;
75787;SDS011;64406;50.024;14.492;2023-06-10T06:05:36;9.00;;;8.05;;
75787;SDS011;64406;50.024;14.492;2023-06-10T06:08:06;8.88;;;7.90;;
75787;SDS011;64406;50.024;14.492;2023-06-10T06:10:31;8.95;;;7.97;;
75787;SDS011;64406;50.024;14.492;2023-06-10T06:12:58;12.93;;;8.50;;
75787;SDS011;64406;50.024;14.492;2023-06-10T06:15:23;9.80;;;6.95;;
75787;SDS011;64406;50.024;14.492;2023-06-10T06:17:49;11.27;;;7.65;;
75787;SDS011;64406;50.024;14.492;2023-06-10T06:20:18;8.38;;;6.82;;
75787;SDS011;64406;50.024;14.492;2023-06-10T06:22:44;8.40;;;7.22;;
75787;SDS011;64406;50.024;14.492;2023-06-10T06:25:10;8.32;;;7.40;;
75787;SDS011;64406;50.024;14.492;2023-06-10T06:27:36;8.73;;;7.25;;
75787;SDS011;64406;50.024;14.492;2023-06-10T06:30:02;8.65;;;5.95;;
75787;SDS011;64406;50.024;14.492;2023-06-10T06:32:28;7.80;;;6.35;;
75787;SDS011;64406;50.024;14.492;2023-06-10T06:34:53;7.97;;;6.72;;
75787;SDS011;64406;50.024;14.492;2023-06-10T06:37:23;8.07;;;6.55;;
75787;SDS011;64406;50.024;14.492;2023-06-10T06:39:53;8.50;;;6.07;;
75787;SDS011;64406;50.024;14.492;2023-06-10T06:42:19;7.13;;;6.20;;
75787;SDS011;64406;50.024;14.492;2023-06-10T06:44:48;7.07;;;6.38;;
75787;SDS011;64406;50.024;14.492;2023-06-10T06:47:14;6.78;;;6.07;;
75787;SDS011;64406;50.024;14.492;2023-06-10T06:49:39;6.88;;;5.72;;
75787;SDS011;64406;50.024;14.492;2023-06-10T06:52:05;8.30;;;5.88;;
75787;SDS011;64406;50.024;14.492;2023-06-10T06:54:31;6.28;;;5.65;;
75787;SDS011;64406;50.024;14.492;2023-06-10T06:56:57;9.82;;;6.35;;
75787;SDS011;64406;50.024;14.492;2023-06-10T06:59:23;6.65;;;5.75;;
75787;SDS011;64406;50.024;14.492;2023-06-10T07:01:49;5.63;;;5.13;;
75787;SDS011;64406;50.024;14.492;2023-06-10T07:04:15;6.60;;;5.43;;
75787;SDS011;64406;50.024;14.492;2023-06-10T07:06:41;6.20;;;5.63;;
75787;SDS011;64406;50.024;14.492;2023-06-10T07:09:07;9.30;;;5.88;;
75787;SDS011;64406;50.024;14.492;2023-06-10T07:11:34;6.22;;;5.63;;
75787;SDS011;64406;50.024;14.492;2023-06-10T07:14:00;6.00;;;5.40;;
75787;SDS011;64406;50.024;14.492;2023-06-10T07:16:25;6.85;;;5.78;;
75787;SDS011;64406;50.024;14.492;2023-06-10T07:18:52;6.10;;;5.45;;
75787;SDS011;64406;50.024;14.492;2023-06-10T07:21:18;6.78;;;6.07;;
75787;SDS011;64406;50.024;14.492;2023-06-10T07:23:44;6.15;;;5.53;;
75787;SDS011;64406;50.024;14.492;2023-06-10T07:26:10;7.88;;;6.30;;
75787;SDS011;64406;50.024;14.492;2023-06-10T07:28:38;6.05;;;5.53;;
75787;SDS011;64406;50.024;14.492;2023-06-10T07:31:05;7.50;;;5.85;;
75787;SDS011;64406;50.024;14.492;2023-06-10T07:33:32;8.63;;;5.75;;
75787;SDS011;64406;50.024;14.492;2023-06-10T07:35:57;7.32;;;6.63;;
75787;SDS011;64406;50.024;14.492;2023-06-10T07:38:24;6.03;;;5.30;;
75787;SDS011;64406;50.024;14.492;2023-06-10T07:40:50;6.35;;;5.75;;
75787;SDS011;64406;50.024;14.492;2023-06-10T07:43:16;6.47;;;5.63;;
75787;SDS011;64406;50.024;14.492;2023-06-10T07:45:42;6.72;;;5.97;;
75787;SDS011;64406;50.024;14.492;2023-06-10T07:48:08;7.32;;;5.97;;
75787;SDS011;64406;50.024;14.492;2023-06-10T07:50:34;8.80;;;6.65;;
75787;SDS011;64406;50.024;14.492;2023-06-10T07:53:00;9.25;;;6.70;;
75787;SDS011;64406;50.024;14.492;2023-06-10T07:55:26;8.30;;;5.78;;
75787;SDS011;64406;50.024;14.492;2023-06-10T07:57:52;8.73;;;6.57;;
75787;SDS011;64406;50.024;14.492;2023-06-10T08:00:19;10.45;;;6.05;;
75787;SDS011;64406;50.024;14.492;2023-06-10T08:02:45;6.70;;;5.97;;
75787;SDS011;64406;50.024;14.492;2023-06-10T08:05:12;9.38;;;6.35;;
75787;SDS011;64406;50.024;14.492;2023-06-10T08:07:39;7.60;;;6.80;;
75787;SDS011;64406;50.024;14.492;2023-06-10T08:10:06;7.70;;;6.68;;
75787;SDS011;64406;50.024;14.492;2023-06-10T08:12:32;7.75;;;6.50;;
75787;SDS011;64406;50.024;14.492;2023-06-10T08:14:59;7.57;;;6.88;;
75787;SDS011;64406;50.024;14.492;2023-06-10T08:17:26;7.22;;;6.43;;
75787;SDS011;64406;50.024;14.492;2023-06-10T08:19:51;8.00;;;6.90;;
75787;SDS011;64406;50.024;14.492;2023-06-10T08:22:17;9.20;;;7.18;;
75787;SDS011;64406;50.024;14.492;2023-06-10T08:24:43;10.15;;;7.15;;
75787;SDS011;64406;50.024;14.492;2023-06-10T08:27:10;8.85;;;7.07;;
75787;SDS011;64406;50.024;14.492;2023-06-10T08:29:36;8.98;;;7.25;;
75787;SDS011;64406;50.024;14.492;2023-06-10T08:32:02;8.55;;;7.70;;
75787;SDS011;64406;50.024;14.492;2023-06-10T08:34:28;7.65;;;6.85;;
75787;SDS011;64406;50.024;14.492;2023-06-10T08:36:54;9.23;;;6.95;;
75787;SDS011;64406;50.024;14.492;2023-06-10T08:39:21;9.25;;;7.63;;
75787;SDS011;64406;50.024;14.492;2023-06-10T08:44:44;8.50;;;7.63;;
75787;SDS011;64406;50.024;14.492;2023-06-10T08:47:15;9.38;;;7.63;;
75787;SDS011;64406;50.024;14.492;2023-06-10T08:49:44;11.57;;;8.50;;
75787;SDS011;64406;50.024;14.492;2023-06-10T08:52:14;8.80;;;7.63;;
75787;SDS011;64406;50.024;14.492;2023-06-10T08:54:43;7.57;;;6.88;;
75787;SDS011;64406;50.024;14.492;2023-06-10T08:57:13;9.75;;;7.90;;
75787;SDS011;64406;50.024;14.492;2023-06-10T08:59:40;9.88;;;7.63;;
75787;SDS011;64406;50.024;14.492;2023-06-10T09:02:06;11.82;;;7.43;;
75787;SDS011;64406;50.024;14.492;2023-06-10T09:04:34;11.18;;;7.93;;
75787;SDS011;64406;50.024;14.492;2023-06-10T09:07:02;10.32;;;8.00;;
75787;SDS011;64406;50.024;14.492;2023-06-10T09:09:30;10.02;;;8.68;;
75787;SDS011;64406;50.024;14.492;2023-06-10T09:11:56;9.05;;;7.97;;
75787;SDS011;64406;50.024;14.492;2023-06-10T09:14:22;8.98;;;8.05;;
75787;SDS011;64406;50.024;14.492;2023-06-10T09:16:48;12.60;;;7.20;;
75787;SDS011;64406;50.024;14.492;2023-06-10T09:19:15;8.82;;;7.93;;
75787;SDS011;64406;50.024;14.492;2023-06-10T09:21:41;9.82;;;7.28;;
75787;SDS011;64406;50.024;14.492;2023-06-10T09:24:07;9.35;;;8.27;;
75787;SDS011;64406;50.024;14.492;2023-06-10T09:26:33;10.82;;;7.82;;
75787;SDS011;64406;50.024;14.492;2023-06-10T09:29:05;9.50;;;8.50;;
75787;SDS011;64406;50.024;14.492;2023-06-10T09:31:34;9.30;;;7.78;;
75787;SDS011;64406;50.024;14.492;2023-06-10T09:34:11;10.05;;;8.48;;
75787;SDS011;64406;50.024;14.492;2023-06-10T09:36:38;8.98;;;8.07;;
75787;SDS011;64406;50.024;14.492;2023-06-10T09:39:05;12.20;;;8.73;;
75787;SDS011;64406;50.024;14.492;2023-06-10T09:41:40;11.65;;;8.32;;
75787;SDS011;64406;50.024;14.492;2023-06-10T09:46:40;10.82;;;8.27;;
75787;SDS011;64406;50.024;14.492;2023-06-10T09:49:06;9.80;;;7.68;;
75787;SDS011;64406;50.024;14.492;2023-06-10T09:51:32;11.82;;;9.38;;
75787;SDS011;64406;50.024;14.492;2023-06-10T09:53:58;9.30;;;8.27;;
75787;SDS011;64406;50.024;14.492;2023-06-10T09:56:36;10.07;;;9.00;;
75787;SDS011;64406;50.024;14.492;2023-06-10T09:59:03;9.73;;;8.45;;
75787;SDS011;64406;50.024;14.492;2023-06-10T10:01:31;9.77;;;8.77;;
75787;SDS011;64406;50.024;14.492;2023-06-10T10:03:58;9.82;;;8.75;;
75787;SDS011;64406;50.024;14.492;2023-06-10T10:06:28;10.07;;;8.80;;
75787;SDS011;64406;50.024;14.492;2023-06-10T10:08:56;10.52;;;8.80;;
75787;SDS011;64406;50.024;14.492;2023-06-10T10:11:22;9.63;;;8.57;;
75787;SDS011;64406;50.024;14.492;2023-06-10T10:13:49;9.90;;;8.50;;
75787;SDS011;64406;50.024;14.492;2023-06-10T10:16:20;10.65;;;9.10;;
75787;SDS011;64406;50.024;14.492;2023-06-10T10:18:55;9.68;;;8.77;;
75787;SDS011;64406;50.024;14.492;2023-06-10T10:21:27;12.23;;;8.63;;
75787;SDS011;64406;50.024;14.492;2023-06-10T10:26:43;9.95;;;7.95;;
75787;SDS011;64406;50.024;14.492;2023-06-10T10:29:24;9.45;;;8.05;;
75787;SDS011;64406;50.024;14.492;2023-06-10T10:31:53;13.70;;;8.52;;
75787;SDS011;64406;50.024;14.492;2023-06-10T10:34:30;9.82;;;8.73;;
75787;SDS011;64406;50.024;14.492;2023-06-10T10:37:14;9.95;;;8.82;;
75787;SDS011;64406;50.024;14.492;2023-06-10T10:39:40;9.75;;;8.43;;
75787;SDS011;64406;50.024;14.492;2023-06-10T10:42:07;10.40;;;8.90;;
75787;SDS011;64406;50.024;14.492;2023-06-10T10:44:37;10.00;;;8.73;;
75787;SDS011;64406;50.024;14.492;2023-06-10T10:47:03;9.95;;;8.48;;
75787;SDS011;64406;50.024;14.492;2023-06-10T10:49:33;10.60;;;8.27;;
75787;SDS011;64406;50.024;14.492;2023-06-10T10:52:00;8.57;;;7.78;;
75787;SDS011;64406;50.024;14.492;2023-06-10T10:54:28;8.25;;;7.40;;
75787;SDS011;64406;50.024;14.492;2023-06-10T10:57:14;8.50;;;7.35;;
75787;SDS011;64406;50.024;14.492;2023-06-10T10:59:51;15.07;;;7.45;;
75787;SDS011;64406;50.024;14.492;2023-06-10T11:05:08;8.65;;;6.75;;
75787;SDS011;64406;50.024;14.492;2023-06-10T11:07:53;9.10;;;7.22;;
75787;SDS011;64406;50.024;14.492;2023-06-10T11:10:30;8.10;;;7.18;;
75787;SDS011;64406;50.024;14.492;2023-06-10T11:12:56;7.43;;;6.70;;
75787;SDS011;64406;50.024;14.492;2023-06-10T11:15:24;9.27;;;7.78;;
75787;SDS011;64406;50.024;14.492;2023-06-10T11:18:11;7.47;;;6.78;;
75787;SDS011;64406;50.024;14.492;2023-06-10T11:31:46;13.07;;;6.70;;
75787;SDS011;64406;50.024;14.492;2023-06-10T11:34:05;14.30;;;8.25;;
75787;SDS011;64406;50.024;14.492;2023-06-10T11:36:32;7.78;;;6.95;;
75787;SDS011;64406;50.024;14.492;2023-06-10T11:39:00;8.70;;;7.05;;
75787;SDS011;64406;50.024;14.492;2023-06-10T11:41:29;10.82;;;6.82;;
75787;SDS011;64406;50.024;14.492;2023-06-10T11:44:07;11.65;;;8.00;;
75787;SDS011;64406;50.024;14.492;2023-06-10T11:46:37;10.20;;;7.97;;
75787;SDS011;64406;50.024;14.492;2023-06-10T11:49:04;9.88;;;8.07;;
75787;SDS011;64406;50.024;14.492;2023-06-10T11:51:35;11.48;;;7.97;;
75787;SDS011;64406;50.024;14.492;2023-06-10T11:54:02;8.65;;;7.75;;
75787;SDS011;64406;50.024;14.492;2023-06-10T11:56:29;11.98;;;8.60;;
75787;SDS011;64406;50.024;14.492;2023-06-10T11:58:56;9.48;;;8.20;;
75787;SDS011;64406;50.024;14.492;2023-06-10T12:01:24;9.82;;;7.63;;
75787;SDS011;64406;50.024;14.492;2023-06-10T12:04:04;9.48;;;8.30;;
75787;SDS011;64406;50.024;14.492;2023-06-10T12:06:41;9.00;;;7.35;;
75787;SDS011;64406;50.024;14.492;2023-06-10T12:11:48;9.77;;;8.57;;
75787;SDS011;64406;50.024;14.492;2023-06-10T12:17:20;10.68;;;8.15;;
75787;SDS011;64406;50.024;14.492;2023-06-10T12:19:48;11.48;;;8.70;;
75787;SDS011;64406;50.024;14.492;2023-06-10T12:22:14;9.80;;;7.40;;
75787;SDS011;64406;50.024;14.492;2023-06-10T12:24:44;9.23;;;8.23;;
75787;SDS011;64406;50.024;14.492;2023-06-10T12:27:11;10.02;;;8.13;;
75787;SDS011;64406;50.024;14.492;2023-06-10T12:29:37;9.63;;;8.25;;
75787;SDS011;64406;50.024;14.492;2023-06-10T12:32:03;9.18;;;7.43;;
75787;SDS011;64406;50.024;14.492;2023-06-10T12:34:35;11.77;;;8.13;;
75787;SDS011;64406;50.024;14.492;2023-06-10T12:37:09;6.97;;;6.28;;
75787;SDS011;64406;50.024;14.492;2023-06-10T12:39:41;8.50;;;6.95;;
75787;SDS011;64406;50.024;14.492;2023-06-10T12:42:08;9.38;;;6.50;;
75787;SDS011;64406;50.024;14.492;2023-06-10T12:44:38;7.65;;;6.85;;
75787;SDS011;64406;50.024;14.492;2023-06-10T12:47:09;9.48;;;6.45;;
75787;SDS011;64406;50.024;14.492;2023-06-10T12:49:38;9.18;;;6.45;;
75787;SDS011;64406;50.024;14.492;2023-06-10T12:52:04;7.28;;;5.88;;
75787;SDS011;64406;50.024;14.492;2023-06-10T12:54:31;6.90;;;6.20;;
75787;SDS011;64406;50.024;14.492;2023-06-10T12:56:57;7.10;;;6.50;;
75787;SDS011;64406;50.024;14.492;2023-06-10T12:59:23;8.25;;;6.70;;
75787;SDS011;64406;50.024;14.492;2023-06-10T13:01:50;6.80;;;6.20;;
75787;SDS011;64406;50.024;14.492;2023-06-10T13:04:17;6.88;;;6.18;;
75787;SDS011;64406;50.024;14.492;2023-06-10T13:06:44;7.50;;;6.15;;
75787;SDS011;64406;50.024;14.492;2023-06-10T13:09:09;6.07;;;5.57;;
75787;SDS011;64406;50.024;14.492;2023-06-10T13:11:35;6.82;;;6.13;;
75787;SDS011;64406;50.024;14.492;2023-06-10T13:14:02;6.45;;;5.80;;
75787;SDS011;64406;50.024;14.492;2023-06-10T13:16:30;6.50;;;5.90;;
75787;SDS011;64406;50.024;14.492;2023-06-10T13:18:57;7.03;;;6.00;;
75787;SDS011;64406;50.024;14.492;2023-06-10T13:21:24;6.63;;;5.78;;
75787;SDS011;64406;50.024;14.492;2023-06-10T13:23:50;6.05;;;5.55;;
75787;SDS011;64406;50.024;14.492;2023-06-10T13:26:18;7.82;;;5.60;;
75787;SDS011;64406;50.024;14.492;2023-06-10T13:28:44;5.70;;;5.20;;
75787;SDS011;64406;50.024;14.492;2023-06-10T13:31:10;7.68;;;5.38;;
75787;SDS011;64406;50.024;14.492;2023-06-10T13:33:36;5.68;;;5.10;;
75787;SDS011;64406;50.024;14.492;2023-06-10T13:36:02;5.00;;;4.60;;
75787;SDS011;64406;50.024;14.492;2023-06-10T13:38:28;5.40;;;4.90;;
75787;SDS011;64406;50.024;14.492;2023-06-10T13:40:53;7.43;;;5.32;;
75787;SDS011;64406;50.024;14.492;2023-06-10T13:43:19;5.10;;;4.57;;
75787;SDS011;64406;50.024;14.492;2023-06-10T13:45:45;6.18;;;5.57;;
75787;SDS011;64406;50.024;14.492;2023-06-10T13:48:10;5.63;;;5.00;;
75787;SDS011;64406;50.024;14.492;2023-06-10T13:50:37;6.00;;;5.47;;
75787;SDS011;64406;50.024;14.492;2023-06-10T13:53:03;6.82;;;5.57;;
75787;SDS011;64406;50.024;14.492;2023-06-10T13:55:30;7.50;;;5.45;;
75787;SDS011;64406;50.024;14.492;2023-06-10T13:57:55;8.82;;;5.95;;
75787;SDS011;64406;50.024;14.492;2023-06-10T14:00:21;7.05;;;5.43;;
75787;SDS011;64406;50.024;14.492;2023-06-10T14:02:47;6.80;;;6.00;;
75787;SDS011;64406;50.024;14.492;2023-06-10T14:05:13;6.53;;;5.60;;
75787;SDS011;64406;50.024;14.492;2023-06-10T14:07:38;7.90;;;6.07;;
75787;SDS011;64406;50.024;14.492;2023-06-10T14:10:06;6.55;;;5.88;;
75787;SDS011;64406;50.024;14.492;2023-06-10T14:12:34;6.82;;;5.47;;
75787;SDS011;64406;50.024;14.492;2023-06-10T14:15:00;6.00;;;5.38;;
75787;SDS011;64406;50.024;14.492;2023-06-10T14:17:26;7.18;;;5.40;;
75787;SDS011;64406;50.024;14.492;2023-06-10T14:19:52;8.48;;;5.68;;
75787;SDS011;64406;50.024;14.492;2023-06-10T14:22:17;7.47;;;5.93;;
75787;SDS011;64406;50.024;14.492;2023-06-10T14:24:43;5.93;;;5.43;;
75787;SDS011;64406;50.024;14.492;2023-06-10T14:27:09;7.88;;;6.22;;
75787;SDS011;64406;50.024;14.492;2023-06-10T14:29:34;8.60;;;5.18;;
75787;SDS011;64406;50.024;14.492;2023-06-10T14:32:00;7.35;;;5.90;;
75787;SDS011;64406;50.024;14.492;2023-06-10T14:34:26;6.75;;;6.15;;
75787;SDS011;64406;50.024;14.492;2023-06-10T14:36:59;5.93;;;5.43;;
75787;SDS011;64406;50.024;14.492;2023-06-10T14:39:25;7.75;;;5.90;;
75787;SDS011;64406;50.024;14.492;2023-06-10T14:41:51;6.82;;;5.80;;
75787;SDS011;64406;50.024;14.492;2023-06-10T14:44:18;7.50;;;5.82;;
75787;SDS011;64406;50.024;14.492;2023-06-10T14:46:44;6.40;;;5.43;;
75787;SDS011;64406;50.024;14.492;2023-06-10T14:49:09;8.82;;;5.78;;
75787;SDS011;64406;50.024;14.492;2023-06-10T14:51:35;6.95;;;5.43;;
75787;SDS011;64406;50.024;14.492;2023-06-10T14:54:01;6.53;;;5.78;;
75787;SDS011;64406;50.024;14.492;2023-06-10T14:56:26;5.82;;;4.90;;